sensor_id;sensor_type;location;lat;lon;timestamp;temperature;humidity
60309;DHT22;50313;52.894;6.492;2023-02-28T00:00:20;3.30;99.90
60309;DHT22;50313;52.894;6.492;2023-02-28T00:02:46;3.40;99.90
60309;DHT22;50313;52.894;6.492;2023-02-28T00:05:14;3.40;99.90
60309;DHT22;50313;52.894;6.492;2023-02-28T00:07:40;3.40;99.90
60309;DHT22;50313;52.894;6.492;2023-02-28T00:10:11;3.40;99.90
60309;DHT22;50313;52.894;6.492;2023-02-28T00:12:37;3.40;99.90
60309;DHT22;50313;52.894;6.492;2023-02-28T00:15:08;3.50;99.90
60309;DHT22;50313;52.894;6.492;2023-02-28T00:17:34;3.40;99.90
60309;DHT22;50313;52.894;6.492;2023-02-28T00:20:02;3.40;99.90
60309;DHT22;50313;52.894;6.492;2023-02-28T00:22:43;3.40;99.90
60309;DHT22;50313;52.894;6.492;2023-02-28T00:25:10;3.40;99.90
60309;DHT22;50313;52.894;6.492;2023-02-28T00:27:38;3.40;99.90
60309;DHT22;50313;52.894;6.492;2023-02-28T00:30:05;3.40;99.90
60309;DHT22;50313;52.894;6.492;2023-02-28T00:32:31;3.40;99.90
60309;DHT22;50313;52.894;6.492;2023-02-28T00:34:57;3.40;99.90
60309;DHT22;50313;52.894;6.492;2023-02-28T00:37:22;3.40;99.90
60309;DHT22;50313;52.894;6.492;2023-02-28T00:39:48;3.40;99.90
60309;DHT22;50313;52.894;6.492;2023-02-28T00:42:14;3.40;99.90
60309;DHT22;50313;52.894;6.492;2023-02-28T00:44:40;3.50;99.90
60309;DHT22;50313;52.894;6.492;2023-02-28T00:47:05;3.50;99.90
60309;DHT22;50313;52.894;6.492;2023-02-28T00:49:31;3.50;99.90
60309;DHT22;50313;52.894;6.492;2023-02-28T00:51:57;3.50;99.90
60309;DHT22;50313;52.894;6.492;2023-02-28T00:54:23;3.50;99.90
60309;DHT22;50313;52.894;6.492;2023-02-28T00:56:49;3.50;99.90
60309;DHT22;50313;52.894;6.492;2023-02-28T00:59:16;3.50;99.90
60309;DHT22;50313;52.894;6.492;2023-02-28T01:01:45;3.50;99.90
60309;DHT22;50313;52.894;6.492;2023-02-28T01:04:11;3.50;99.90
60309;DHT22;50313;52.894;6.492;2023-02-28T01:06:37;3.50;99.90
60309;DHT22;50313;52.894;6.492;2023-02-28T01:09:04;3.60;99.90
60309;DHT22;50313;52.894;6.492;2023-02-28T01:11:30;3.50;99.90
60309;DHT22;50313;52.894;6.492;2023-02-28T01:13:56;3.50;99.90
60309;DHT22;50313;52.894;6.492;2023-02-28T01:16:22;3.50;99.90
60309;DHT22;50313;52.894;6.492;2023-02-28T01:18:48;3.50;99.90
60309;DHT22;50313;52.894;6.492;2023-02-28T01:21:16;3.50;99.90
60309;DHT22;50313;52.894;6.492;2023-02-28T01:23:42;3.50;99.90
60309;DHT22;50313;52.894;6.492;2023-02-28T01:26:11;3.60;99.90
60309;DHT22;50313;52.894;6.492;2023-02-28T01:28:37;3.50;99.90
60309;DHT22;50313;52.894;6.492;2023-02-28T01:31:03;3.50;99.90
60309;DHT22;50313;52.894;6.492;2023-02-28T01:33:30;3.60;99.90
60309;DHT22;50313;52.894;6.492;2023-02-28T01:36:04;3.60;99.90
60309;DHT22;50313;52.894;6.492;2023-02-28T01:38:31;3.50;99.90
60309;DHT22;50313;52.894;6.492;2023-02-28T01:40:57;3.50;99.90
60309;DHT22;50313;52.894;6.492;2023-02-28T01:46:15;3.50;99.90
60309;DHT22;50313;52.894;6.492;2023-02-28T01:49:05;3.50;99.90
60309;DHT22;50313;52.894;6.492;2023-02-28T01:54:09;3.50;99.90
60309;DHT22;50313;52.894;6.492;2023-02-28T01:57:16;3.60;99.90
60309;DHT22;50313;52.894;6.492;2023-02-28T02:02:03;3.60;99.90
60309;DHT22;50313;52.894;6.492;2023-02-28T02:04:37;3.60;99.90
60309;DHT22;50313;52.894;6.492;2023-02-28T02:07:03;3.60;99.90
60309;DHT22;50313;52.894;6.492;2023-02-28T02:09:29;3.60;99.90
60309;DHT22;50313;52.894;6.492;2023-02-28T02:11:55;3.60;99.90
60309;DHT22;50313;52.894;6.492;2023-02-28T02:17:13;3.70;99.90
60309;DHT22;50313;52.894;6.492;2023-02-28T02:39:13;3.60;99.90
60309;DHT22;50313;52.894;6.492;2023-02-28T02:41:47;3.50;99.90
60309;DHT22;50313;52.894;6.492;2023-02-28T02:44:40;3.50;99.90
60309;DHT22;50313;52.894;6.492;2023-02-28T02:47:23;3.50;99.90
60309;DHT22;50313;52.894;6.492;2023-02-28T02:49:52;3.50;99.90
60309;DHT22;50313;52.894;6.492;2023-02-28T02:52:22;3.50;99.90
60309;DHT22;50313;52.894;6.492;2023-02-28T02:54:51;3.40;99.90
60309;DHT22;50313;52.894;6.492;2023-02-28T02:57:23;3.40;99.90
60309;DHT22;50313;52.894;6.492;2023-02-28T02:59:51;3.40;99.90
60309;DHT22;50313;52.894;6.492;2023-02-28T03:02:19;3.40;99.90
60309;DHT22;50313;52.894;6.492;2023-02-28T03:04:51;3.30;99.90
60309;DHT22;50313;52.894;6.492;2023-02-28T03:07:17;3.20;99.90
60309;DHT22;50313;52.894;6.492;2023-02-28T03:09:52;3.20;99.90
60309;DHT22;50313;52.894;6.492;2023-02-28T03:12:18;3.30;99.90
60309;DHT22;50313;52.894;6.492;2023-02-28T03:17:38;3.20;99.90
60309;DHT22;50313;52.894;6.492;2023-02-28T03:25:51;3.10;99.90
60309;DHT22;50313;52.894;6.492;2023-02-28T03:31:08;3.10;99.90
60309;DHT22;50313;52.894;6.492;2023-02-28T03:33:43;3.10;99.90
60309;DHT22;50313;52.894;6.492;2023-02-28T03:36:18;3.10;99.90
60309;DHT22;50313;52.894;6.492;2023-02-28T03:39:06;3.10;99.90
60309;DHT22;50313;52.894;6.492;2023-02-28T03:41:52;3.10;99.90
60309;DHT22;50313;52.894;6.492;2023-02-28T03:44:41;3.00;99.90
60309;DHT22;50313;52.894;6.492;2023-02-28T03:47:29;3.00;99.90
60309;DHT22;50313;52.894;6.492;2023-02-28T03:49:57;3.00;99.90
60309;DHT22;50313;52.894;6.492;2023-02-28T03:52:28;3.00;99.90
60309;DHT22;50313;52.894;6.492;2023-02-28T03:55:00;3.00;99.90
60309;DHT22;50313;52.894;6.492;2023-02-28T04:00:12;3.00;99.90
60309;DHT22;50313;52.894;6.492;2023-02-28T04:02:40;2.90;99.90
60309;DHT22;50313;52.894;6.492;2023-02-28T04:05:06;3.00;99.90
60309;DHT22;50313;52.894;6.492;2023-02-28T04:07:32;2.90;99.90
60309;DHT22;50313;52.894;6.492;2023-02-28T04:09:59;2.90;99.90
60309;DHT22;50313;52.894;6.492;2023-02-28T04:12:25;2.90;99.90
60309;DHT22;50313;52.894;6.492;2023-02-28T04:14:51;2.90;99.90
60309;DHT22;50313;52.894;6.492;2023-02-28T04:17:16;2.80;99.90
60309;DHT22;50313;52.894;6.492;2023-02-28T04:19:42;2.80;99.90
60309;DHT22;50313;52.894;6.492;2023-02-28T04:22:08;2.80;99.90
60309;DHT22;50313;52.894;6.492;2023-02-28T04:24:35;2.80;99.90
60309;DHT22;50313;52.894;6.492;2023-02-28T04:27:01;2.80;99.90
60309;DHT22;50313;52.894;6.492;2023-02-28T04:29:29;2.80;99.90
60309;DHT22;50313;52.894;6.492;2023-02-28T04:31:56;2.70;99.90
60309;DHT22;50313;52.894;6.492;2023-02-28T04:34:26;2.70;99.90
60309;DHT22;50313;52.894;6.492;2023-02-28T04:36:54;2.70;99.90
60309;DHT22;50313;52.894;6.492;2023-02-28T04:39:22;2.70;99.90
60309;DHT22;50313;52.894;6.492;2023-02-28T04:41:47;2.60;99.90
60309;DHT22;50313;52.894;6.492;2023-02-28T04:44:14;2.60;99.90
60309;DHT22;50313;52.894;6.492;2023-02-28T04:46:40;2.60;99.90
60309;DHT22;50313;52.894;6.492;2023-02-28T04:49:06;2.60;99.90
60309;DHT22;50313;52.894;6.492;2023-02-28T04:51:31;2.60;99.90
60309;DHT22;50313;52.894;6.492;2023-02-28T04:53:57;2.60;99.90
60309;DHT22;50313;52.894;6.492;2023-02-28T04:56:23;2.60;99.90
60309;DHT22;50313;52.894;6.492;2023-02-28T04:58:50;2.60;99.90
60309;DHT22;50313;52.894;6.492;2023-02-28T05:01:31;2.60;99.90
60309;DHT22;50313;52.894;6.492;2023-02-28T05:03:59;2.60;99.90
60309;DHT22;50313;52.894;6.492;2023-02-28T05:06:27;2.50;99.90
60309;DHT22;50313;52.894;6.492;2023-02-28T05:08:53;2.50;99.90
60309;DHT22;50313;52.894;6.492;2023-02-28T05:11:28;2.50;99.90
60309;DHT22;50313;52.894;6.492;2023-02-28T05:13:55;2.40;99.90
60309;DHT22;50313;52.894;6.492;2023-02-28T05:16:21;2.40;99.90
60309;DHT22;50313;52.894;6.492;2023-02-28T05:18:47;2.40;99.90
60309;DHT22;50313;52.894;6.492;2023-02-28T05:21:34;2.40;99.90
60309;DHT22;50313;52.894;6.492;2023-02-28T05:24:03;2.30;99.90
60309;DHT22;50313;52.894;6.492;2023-02-28T05:26:30;2.30;99.90
60309;DHT22;50313;52.894;6.492;2023-02-28T05:28:56;2.30;99.90
60309;DHT22;50313;52.894;6.492;2023-02-28T05:31:22;2.30;99.90
60309;DHT22;50313;52.894;6.492;2023-02-28T05:33:48;2.30;99.90
60309;DHT22;50313;52.894;6.492;2023-02-28T05:36:15;2.30;99.90
60309;DHT22;50313;52.894;6.492;2023-02-28T05:38:41;2.30;99.90
60309;DHT22;50313;52.894;6.492;2023-02-28T05:41:08;2.30;99.90
60309;DHT22;50313;52.894;6.492;2023-02-28T05:43:35;2.30;99.90
60309;DHT22;50313;52.894;6.492;2023-02-28T05:46:08;2.20;99.90
60309;DHT22;50313;52.894;6.492;2023-02-28T05:48:35;2.30;99.90
60309;DHT22;50313;52.894;6.492;2023-02-28T05:51:02;2.20;99.90
60309;DHT22;50313;52.894;6.492;2023-02-28T05:53:28;2.20;99.90
60309;DHT22;50313;52.894;6.492;2023-02-28T05:55:54;2.20;99.90
60309;DHT22;50313;52.894;6.492;2023-02-28T05:58:21;2.20;99.90
60309;DHT22;50313;52.894;6.492;2023-02-28T06:00:47;2.10;99.90
60309;DHT22;50313;52.894;6.492;2023-02-28T06:03:13;2.20;99.90
60309;DHT22;50313;52.894;6.492;2023-02-28T06:05:39;2.20;99.90
60309;DHT22;50313;52.894;6.492;2023-02-28T06:08:05;2.10;99.90
60309;DHT22;50313;52.894;6.492;2023-02-28T06:10:33;2.10;99.90
60309;DHT22;50313;52.894;6.492;2023-02-28T06:13:03;2.10;99.90
60309;DHT22;50313;52.894;6.492;2023-02-28T06:15:30;2.10;99.90
60309;DHT22;50313;52.894;6.492;2023-02-28T06:17:56;2.10;99.90
60309;DHT22;50313;52.894;6.492;2023-02-28T06:20:23;2.10;99.90
60309;DHT22;50313;52.894;6.492;2023-02-28T06:22:49;2.10;99.90
60309;DHT22;50313;52.894;6.492;2023-02-28T06:25:16;2.10;99.90
60309;DHT22;50313;52.894;6.492;2023-02-28T06:27:42;2.10;99.90
60309;DHT22;50313;52.894;6.492;2023-02-28T06:30:10;2.10;99.90
60309;DHT22;50313;52.894;6.492;2023-02-28T06:32:36;2.10;99.90
60309;DHT22;50313;52.894;6.492;2023-02-28T06:35:03;2.10;99.90
60309;DHT22;50313;52.894;6.492;2023-02-28T06:37:30;2.10;99.90
60309;DHT22;50313;52.894;6.492;2023-02-28T06:39:56;2.10;99.90
60309;DHT22;50313;52.894;6.492;2023-02-28T06:42:24;2.10;99.90
60309;DHT22;50313;52.894;6.492;2023-02-28T06:44:57;2.10;99.90
60309;DHT22;50313;52.894;6.492;2023-02-28T06:47:30;2.10;99.90
60309;DHT22;50313;52.894;6.492;2023-02-28T06:49:56;2.10;99.90
60309;DHT22;50313;52.894;6.492;2023-02-28T06:52:22;2.10;99.90
60309;DHT22;50313;52.894;6.492;2023-02-28T06:54:47;2.10;99.90
60309;DHT22;50313;52.894;6.492;2023-02-28T06:57:28;2.10;99.90
60309;DHT22;50313;52.894;6.492;2023-02-28T06:59:57;2.10;99.90
60309;DHT22;50313;52.894;6.492;2023-02-28T07:02:23;2.10;99.90
60309;DHT22;50313;52.894;6.492;2023-02-28T07:04:49;2.20;99.90
60309;DHT22;50313;52.894;6.492;2023-02-28T07:07:15;2.20;99.90
60309;DHT22;50313;52.894;6.492;2023-02-28T07:09:40;2.30;99.90
60309;DHT22;50313;52.894;6.492;2023-02-28T07:12:06;2.30;99.90
60309;DHT22;50313;52.894;6.492;2023-02-28T07:14:32;2.20;99.90
60309;DHT22;50313;52.894;6.492;2023-02-28T07:16:57;2.20;99.90
60309;DHT22;50313;52.894;6.492;2023-02-28T07:19:24;2.20;99.90
60309;DHT22;50313;52.894;6.492;2023-02-28T07:21:50;2.30;99.90
60309;DHT22;50313;52.894;6.492;2023-02-28T07:24:16;2.40;99.90
60309;DHT22;50313;52.894;6.492;2023-02-28T07:26:43;2.40;99.90
60309;DHT22;50313;52.894;6.492;2023-02-28T07:29:09;2.40;99.90
60309;DHT22;50313;52.894;6.492;2023-02-28T07:31:35;2.40;99.90
60309;DHT22;50313;52.894;6.492;2023-02-28T07:34:00;2.40;99.90
60309;DHT22;50313;52.894;6.492;2023-02-28T07:36:27;2.40;99.90
60309;DHT22;50313;52.894;6.492;2023-02-28T07:38:52;2.40;99.90
60309;DHT22;50313;52.894;6.492;2023-02-28T07:41:20;2.40;99.90
60309;DHT22;50313;52.894;6.492;2023-02-28T07:43:46;2.40;99.90
60309;DHT22;50313;52.894;6.492;2023-02-28T07:46:14;2.40;99.90
60309;DHT22;50313;52.894;6.492;2023-02-28T07:48:41;2.40;99.90
60309;DHT22;50313;52.894;6.492;2023-02-28T07:51:07;2.40;99.90
60309;DHT22;50313;52.894;6.492;2023-02-28T07:53:33;2.40;99.90
60309;DHT22;50313;52.894;6.492;2023-02-28T07:56:00;2.40;99.90
60309;DHT22;50313;52.894;6.492;2023-02-28T07:58:27;2.50;99.90
60309;DHT22;50313;52.894;6.492;2023-02-28T08:00:54;2.50;99.90
60309;DHT22;50313;52.894;6.492;2023-02-28T08:03:21;2.50;99.90
60309;DHT22;50313;52.894;6.492;2023-02-28T08:05:48;2.50;99.90
60309;DHT22;50313;52.894;6.492;2023-02-28T08:08:15;2.50;99.90
60309;DHT22;50313;52.894;6.492;2023-02-28T08:10:41;2.70;99.90
60309;DHT22;50313;52.894;6.492;2023-02-28T08:13:07;2.70;99.90
60309;DHT22;50313;52.894;6.492;2023-02-28T08:15:33;2.70;99.90
60309;DHT22;50313;52.894;6.492;2023-02-28T08:17:58;2.80;99.90
60309;DHT22;50313;52.894;6.492;2023-02-28T08:20:25;2.80;99.90
60309;DHT22;50313;52.894;6.492;2023-02-28T08:22:51;2.90;99.90
60309;DHT22;50313;52.894;6.492;2023-02-28T08:25:17;2.90;99.90
60309;DHT22;50313;52.894;6.492;2023-02-28T08:27:44;2.90;99.90
60309;DHT22;50313;52.894;6.492;2023-02-28T08:30:11;3.00;99.90
60309;DHT22;50313;52.894;6.492;2023-02-28T08:32:37;3.10;99.90
60309;DHT22;50313;52.894;6.492;2023-02-28T08:35:04;3.30;99.90
60309;DHT22;50313;52.894;6.492;2023-02-28T08:37:30;3.30;99.90
60309;DHT22;50313;52.894;6.492;2023-02-28T08:39:56;3.30;99.90
60309;DHT22;50313;52.894;6.492;2023-02-28T08:42:21;3.40;99.90
60309;DHT22;50313;52.894;6.492;2023-02-28T08:44:47;3.40;99.90
60309;DHT22;50313;52.894;6.492;2023-02-28T08:47:13;3.40;99.90
60309;DHT22;50313;52.894;6.492;2023-02-28T08:49:40;3.40;99.90
60309;DHT22;50313;52.894;6.492;2023-02-28T08:52:06;3.50;99.90
60309;DHT22;50313;52.894;6.492;2023-02-28T08:54:31;3.60;99.90
60309;DHT22;50313;52.894;6.492;2023-02-28T08:56:58;3.70;99.90
60309;DHT22;50313;52.894;6.492;2023-02-28T08:59:24;3.70;99.90
60309;DHT22;50313;52.894;6.492;2023-02-28T09:01:50;3.80;99.90
60309;DHT22;50313;52.894;6.492;2023-02-28T09:04:15;3.90;99.90
60309;DHT22;50313;52.894;6.492;2023-02-28T09:06:41;3.90;99.90
60309;DHT22;50313;52.894;6.492;2023-02-28T09:09:07;4.00;99.90
60309;DHT22;50313;52.894;6.492;2023-02-28T09:11:34;4.00;99.90
60309;DHT22;50313;52.894;6.492;2023-02-28T09:14:01;4.00;99.90
60309;DHT22;50313;52.894;6.492;2023-02-28T09:16:29;4.30;99.90
60309;DHT22;50313;52.894;6.492;2023-02-28T09:18:56;4.30;99.90
60309;DHT22;50313;52.894;6.492;2023-02-28T09:21:22;4.40;99.90
60309;DHT22;50313;52.894;6.492;2023-02-28T09:23:51;4.50;99.90
60309;DHT22;50313;52.894;6.492;2023-02-28T09:26:22;4.50;99.90
60309;DHT22;50313;52.894;6.492;2023-02-28T09:28:48;4.60;99.90
60309;DHT22;50313;52.894;6.492;2023-02-28T09:31:18;4.60;99.90
60309;DHT22;50313;52.894;6.492;2023-02-28T09:33:47;4.70;99.90
60309;DHT22;50313;52.894;6.492;2023-02-28T09:36:12;4.50;99.90
60309;DHT22;50313;52.894;6.492;2023-02-28T09:38:38;4.40;99.90
60309;DHT22;50313;52.894;6.492;2023-02-28T09:41:21;4.40;99.90
60309;DHT22;50313;52.894;6.492;2023-02-28T09:43:57;4.50;99.90
60309;DHT22;50313;52.894;6.492;2023-02-28T09:46:35;4.40;99.90
60309;DHT22;50313;52.894;6.492;2023-02-28T09:49:07;4.30;99.90
60309;DHT22;50313;52.894;6.492;2023-02-28T09:52:04;4.30;99.90
60309;DHT22;50313;52.894;6.492;2023-02-28T09:54:32;4.50;99.90
60309;DHT22;50313;52.894;6.492;2023-02-28T09:57:14;4.60;99.90
60309;DHT22;50313;52.894;6.492;2023-02-28T10:03:04;4.80;99.90
60309;DHT22;50313;52.894;6.492;2023-02-28T10:05:41;5.00;99.90
60309;DHT22;50313;52.894;6.492;2023-02-28T10:08:18;4.90;99.90
60309;DHT22;50313;52.894;6.492;2023-02-28T10:10:51;5.10;99.90
60309;DHT22;50313;52.894;6.492;2023-02-28T10:13:53;5.00;99.90
60309;DHT22;50313;52.894;6.492;2023-02-28T10:16:40;5.00;99.90
60309;DHT22;50313;52.894;6.492;2023-02-28T10:19:17;4.90;99.90
60309;DHT22;50313;52.894;6.492;2023-02-28T10:24:39;5.20;99.90
60309;DHT22;50313;52.894;6.492;2023-02-28T10:27:18;5.20;99.90
60309;DHT22;50313;52.894;6.492;2023-02-28T10:29:46;5.30;99.90
60309;DHT22;50313;52.894;6.492;2023-02-28T10:32:32;5.20;99.90
60309;DHT22;50313;52.894;6.492;2023-02-28T10:37:33;5.50;99.90
60309;DHT22;50313;52.894;6.492;2023-02-28T10:40:04;5.60;99.90
60309;DHT22;50313;52.894;6.492;2023-02-28T10:42:31;5.60;99.90
60309;DHT22;50313;52.894;6.492;2023-02-28T10:45:16;5.80;99.90
60309;DHT22;50313;52.894;6.492;2023-02-28T10:47:59;5.80;99.90
60309;DHT22;50313;52.894;6.492;2023-02-28T10:55:40;5.70;99.90
60309;DHT22;50313;52.894;6.492;2023-02-28T10:58:24;5.70;99.90
60309;DHT22;50313;52.894;6.492;2023-02-28T11:00:51;5.70;99.90
60309;DHT22;50313;52.894;6.492;2023-02-28T11:03:43;5.60;99.90
60309;DHT22;50313;52.894;6.492;2023-02-28T11:06:32;5.80;99.90
60309;DHT22;50313;52.894;6.492;2023-02-28T11:11:28;5.80;99.90
60309;DHT22;50313;52.894;6.492;2023-02-28T11:13:57;5.90;99.90
60309;DHT22;50313;52.894;6.492;2023-02-28T11:16:36;6.00;99.90
60309;DHT22;50313;52.894;6.492;2023-02-28T11:19:04;6.30;99.90
60309;DHT22;50313;52.894;6.492;2023-02-28T11:21:36;6.40;99.90
60309;DHT22;50313;52.894;6.492;2023-02-28T11:26:52;6.50;99.90
60309;DHT22;50313;52.894;6.492;2023-02-28T11:29:23;6.40;99.90
60309;DHT22;50313;52.894;6.492;2023-02-28T11:32:12;6.40;99.90
60309;DHT22;50313;52.894;6.492;2023-02-28T11:34:39;6.40;99.90
60309;DHT22;50313;52.894;6.492;2023-02-28T11:37:12;6.50;99.90
60309;DHT22;50313;52.894;6.492;2023-02-28T11:39:38;6.60;99.90
60309;DHT22;50313;52.894;6.492;2023-02-28T11:42:37;6.80;99.90
60309;DHT22;50313;52.894;6.492;2023-02-28T11:51:23;7.10;99.90
60309;DHT22;50313;52.894;6.492;2023-02-28T11:57:24;7.60;99.90
60309;DHT22;50313;52.894;6.492;2023-02-28T12:00:02;7.60;99.90
60309;DHT22;50313;52.894;6.492;2023-02-28T12:02:54;7.50;99.90
60309;DHT22;50313;52.894;6.492;2023-02-28T12:05:44;7.60;99.90
60309;DHT22;50313;52.894;6.492;2023-02-28T12:08:35;7.90;99.90
60309;DHT22;50313;52.894;6.492;2023-02-28T12:11:07;8.00;99.90
60309;DHT22;50313;52.894;6.492;2023-02-28T12:16:57;8.00;99.90
60309;DHT22;50313;52.894;6.492;2023-02-28T12:19:19;8.00;99.50
60309;DHT22;50313;52.894;6.492;2023-02-28T12:24:55;8.20;99.90
60309;DHT22;50313;52.894;6.492;2023-02-28T12:27:25;8.10;99.90
60309;DHT22;50313;52.894;6.492;2023-02-28T12:30:02;8.10;99.90
60309;DHT22;50313;52.894;6.492;2023-02-28T12:32:35;7.80;99.90
60309;DHT22;50313;52.894;6.492;2023-02-28T12:35:14;7.70;99.90
60309;DHT22;50313;52.894;6.492;2023-02-28T12:37:43;7.80;99.10
60309;DHT22;50313;52.894;6.492;2023-02-28T12:40:15;7.80;97.20
60309;DHT22;50313;52.894;6.492;2023-02-28T12:43:08;7.90;97.00
60309;DHT22;50313;52.894;6.492;2023-02-28T12:45:51;7.90;96.50
60309;DHT22;50313;52.894;6.492;2023-02-28T12:48:32;8.00;97.60
60309;DHT22;50313;52.894;6.492;2023-02-28T12:51:10;7.90;95.80
60309;DHT22;50313;52.894;6.492;2023-02-28T12:56:45;8.10;95.90
60309;DHT22;50313;52.894;6.492;2023-02-28T12:59:27;8.10;95.10
60309;DHT22;50313;52.894;6.492;2023-02-28T13:05:18;8.20;95.50
60309;DHT22;50313;52.894;6.492;2023-02-28T13:08:17;8.20;95.10
60309;DHT22;50313;52.894;6.492;2023-02-28T13:10:49;8.20;94.70
60309;DHT22;50313;52.894;6.492;2023-02-28T13:13:22;8.30;94.90
60309;DHT22;50313;52.894;6.492;2023-02-28T13:16:07;8.20;94.30
60309;DHT22;50313;52.894;6.492;2023-02-28T13:21:07;8.20;94.40
60309;DHT22;50313;52.894;6.492;2023-02-28T13:27:10;8.10;94.00
60309;DHT22;50313;52.894;6.492;2023-02-28T13:34:31;8.00;93.50
60309;DHT22;50313;52.894;6.492;2023-02-28T13:40:22;8.20;92.50
60309;DHT22;50313;52.894;6.492;2023-02-28T13:42:51;8.30;94.00
60309;DHT22;50313;52.894;6.492;2023-02-28T13:45:28;8.20;93.30
60309;DHT22;50313;52.894;6.492;2023-02-28T13:48:03;8.20;92.70
60309;DHT22;50313;52.894;6.492;2023-02-28T13:50:35;8.20;93.30
60309;DHT22;50313;52.894;6.492;2023-02-28T14:07:06;9.00;88.00
60309;DHT22;50313;52.894;6.492;2023-02-28T14:09:39;9.30;90.00
60309;DHT22;50313;52.894;6.492;2023-02-28T14:18:11;9.90;87.20
60309;DHT22;50313;52.894;6.492;2023-02-28T14:20:40;10.10;90.00
60309;DHT22;50313;52.894;6.492;2023-02-28T14:23:25;9.90;86.50
60309;DHT22;50313;52.894;6.492;2023-02-28T14:34:51;10.20;85.80
60309;DHT22;50313;52.894;6.492;2023-02-28T14:37:28;10.20;87.80
60309;DHT22;50313;52.894;6.492;2023-02-28T14:39:56;9.80;86.00
60309;DHT22;50313;52.894;6.492;2023-02-28T14:42:37;9.40;89.60
60309;DHT22;50313;52.894;6.492;2023-02-28T14:45:04;8.80;88.70
60309;DHT22;50313;52.894;6.492;2023-02-28T14:47:35;8.50;88.60
60309;DHT22;50313;52.894;6.492;2023-02-28T14:50:03;8.70;89.20
60309;DHT22;50313;52.894;6.492;2023-02-28T14:52:31;9.00;89.40
60309;DHT22;50313;52.894;6.492;2023-02-28T14:55:05;9.20;87.50
60309;DHT22;50313;52.894;6.492;2023-02-28T14:58:02;9.50;86.30
60309;DHT22;50313;52.894;6.492;2023-02-28T15:00:48;9.70;86.40
60309;DHT22;50313;52.894;6.492;2023-02-28T15:05:59;9.80;84.50
60309;DHT22;50313;52.894;6.492;2023-02-28T15:08:26;10.10;82.40
60309;DHT22;50313;52.894;6.492;2023-02-28T15:11:09;10.00;78.60
60309;DHT22;50313;52.894;6.492;2023-02-28T15:13:50;10.20;79.80
60309;DHT22;50313;52.894;6.492;2023-02-28T15:16:21;10.20;79.60
60309;DHT22;50313;52.894;6.492;2023-02-28T15:18:54;10.50;79.00
60309;DHT22;50313;52.894;6.492;2023-02-28T15:21:31;10.60;79.70
60309;DHT22;50313;52.894;6.492;2023-02-28T15:26:53;10.70;79.10
60309;DHT22;50313;52.894;6.492;2023-02-28T15:29:23;10.90;78.90
60309;DHT22;50313;52.894;6.492;2023-02-28T15:31:55;10.90;77.90
60309;DHT22;50313;52.894;6.492;2023-02-28T15:34:39;11.10;80.10
60309;DHT22;50313;52.894;6.492;2023-02-28T15:39:54;10.70;78.10
60309;DHT22;50313;52.894;6.492;2023-02-28T15:42:22;10.40;77.70
60309;DHT22;50313;52.894;6.492;2023-02-28T15:44:48;10.60;78.10
60309;DHT22;50313;52.894;6.492;2023-02-28T15:47:22;10.40;76.80
60309;DHT22;50313;52.894;6.492;2023-02-28T15:50:08;10.80;77.20
60309;DHT22;50313;52.894;6.492;2023-02-28T15:52:44;10.70;77.20
60309;DHT22;50313;52.894;6.492;2023-02-28T15:55:16;10.60;79.30
60309;DHT22;50313;52.894;6.492;2023-02-28T15:57:45;10.80;79.80
60309;DHT22;50313;52.894;6.492;2023-02-28T16:00:18;10.80;81.80
60309;DHT22;50313;52.894;6.492;2023-02-28T16:02:44;10.00;82.00
60309;DHT22;50313;52.894;6.492;2023-02-28T16:07:40;9.00;85.30
60309;DHT22;50313;52.894;6.492;2023-02-28T16:10:08;8.70;85.10
60309;DHT22;50313;52.894;6.492;2023-02-28T16:12:36;8.30;87.00
60309;DHT22;50313;52.894;6.492;2023-02-28T16:15:07;8.00;89.20
60309;DHT22;50313;52.894;6.492;2023-02-28T16:17:34;7.80;90.30
60309;DHT22;50313;52.894;6.492;2023-02-28T16:20:05;7.60;91.10
60309;DHT22;50313;52.894;6.492;2023-02-28T16:22:31;7.40;90.60
60309;DHT22;50313;52.894;6.492;2023-02-28T16:24:56;7.20;90.60
60309;DHT22;50313;52.894;6.492;2023-02-28T16:27:28;7.10;91.20
60309;DHT22;50313;52.894;6.492;2023-02-28T16:29:55;7.00;91.60
60309;DHT22;50313;52.894;6.492;2023-02-28T16:32:21;6.90;92.50
60309;DHT22;50313;52.894;6.492;2023-02-28T16:34:47;6.90;93.00
60309;DHT22;50313;52.894;6.492;2023-02-28T16:37:15;6.70;93.20
60309;DHT22;50313;52.894;6.492;2023-02-28T16:39:42;6.60;93.80
60309;DHT22;50313;52.894;6.492;2023-02-28T16:42:18;6.50;94.30
60309;DHT22;50313;52.894;6.492;2023-02-28T16:44:47;6.50;94.80
60309;DHT22;50313;52.894;6.492;2023-02-28T16:47:13;6.40;94.90
60309;DHT22;50313;52.894;6.492;2023-02-28T16:49:39;6.30;95.40
60309;DHT22;50313;52.894;6.492;2023-02-28T16:52:08;6.30;95.90
60309;DHT22;50313;52.894;6.492;2023-02-28T16:54:33;6.00;96.50
60309;DHT22;50313;52.894;6.492;2023-02-28T16:56:59;6.10;96.60
60309;DHT22;50313;52.894;6.492;2023-02-28T16:59:26;6.00;97.10
60309;DHT22;50313;52.894;6.492;2023-02-28T17:01:53;5.90;97.00
60309;DHT22;50313;52.894;6.492;2023-02-28T17:04:19;5.80;97.40
60309;DHT22;50313;52.894;6.492;2023-02-28T17:06:45;5.70;97.90
60309;DHT22;50313;52.894;6.492;2023-02-28T17:09:17;5.60;98.00
60309;DHT22;50313;52.894;6.492;2023-02-28T17:11:43;5.50;98.60
60309;DHT22;50313;52.894;6.492;2023-02-28T17:14:10;5.50;99.00
60309;DHT22;50313;52.894;6.492;2023-02-28T17:16:37;5.30;99.20
60309;DHT22;50313;52.894;6.492;2023-02-28T17:19:06;5.10;99.60
60309;DHT22;50313;52.894;6.492;2023-02-28T17:21:34;5.10;99.90
60309;DHT22;50313;52.894;6.492;2023-02-28T17:24:00;4.80;99.90
60309;DHT22;50313;52.894;6.492;2023-02-28T17:26:26;4.70;99.90
60309;DHT22;50313;52.894;6.492;2023-02-28T17:28:54;4.60;99.90
60309;DHT22;50313;52.894;6.492;2023-02-28T17:31:22;4.60;99.90
60309;DHT22;50313;52.894;6.492;2023-02-28T17:33:48;4.40;99.90
60309;DHT22;50313;52.894;6.492;2023-02-28T17:36:17;4.30;99.90
60309;DHT22;50313;52.894;6.492;2023-02-28T17:38:43;4.30;99.90
60309;DHT22;50313;52.894;6.492;2023-02-28T17:41:10;4.10;99.90
60309;DHT22;50313;52.894;6.492;2023-02-28T17:43:37;3.90;99.90
60309;DHT22;50313;52.894;6.492;2023-02-28T17:46:03;3.90;99.90
60309;DHT22;50313;52.894;6.492;2023-02-28T17:48:31;3.70;99.90
60309;DHT22;50313;52.894;6.492;2023-02-28T17:50:56;3.60;99.90
60309;DHT22;50313;52.894;6.492;2023-02-28T17:53:22;3.60;99.90
60309;DHT22;50313;52.894;6.492;2023-02-28T17:55:49;3.60;99.90
60309;DHT22;50313;52.894;6.492;2023-02-28T17:58:15;3.50;99.90
60309;DHT22;50313;52.894;6.492;2023-02-28T18:00:40;3.30;99.90
60309;DHT22;50313;52.894;6.492;2023-02-28T18:03:06;3.30;99.90
60309;DHT22;50313;52.894;6.492;2023-02-28T18:05:33;3.20;99.90
60309;DHT22;50313;52.894;6.492;2023-02-28T18:08:01;3.20;99.90
60309;DHT22;50313;52.894;6.492;2023-02-28T18:10:27;3.10;99.90
60309;DHT22;50313;52.894;6.492;2023-02-28T18:12:53;3.10;99.90
60309;DHT22;50313;52.894;6.492;2023-02-28T18:15:20;3.00;99.90
60309;DHT22;50313;52.894;6.492;2023-02-28T18:17:47;2.90;99.90
60309;DHT22;50313;52.894;6.492;2023-02-28T18:20:13;2.80;99.90
60309;DHT22;50313;52.894;6.492;2023-02-28T18:22:40;2.80;99.90